Time;durP1;ratioP1;P1;durP2;ratioP2;P2;SDS_P1;SDS_P2;PMS_P1;PMS_P2;Temp;Humidity;BMP_temperature;BMP_pressure;BME280_temperature;BME280_humidity;BME280_pressure;Samples;Min_cycle;Max_cycle;Signal;HPM_P1;HPM_P2
2022/07/14 00:01:39;;;;;;;2.33;2.13;;;20.90;46.20;;;19.91;44.76;98179.59;5003024;28;20528;-75
2022/07/14 00:04:08;;;;;;;3.23;2.30;;;20.70;46.10;;;19.82;45.21;98175.75;5005224;28;20470;-77
2022/07/14 00:06:36;;;;;;;2.70;2.40;;;20.50;46.40;;;19.74;45.77;98168.06;5020487;28;20472;-73
2022/07/14 00:09:04;;;;;;;3.00;2.70;;;20.40;46.90;;;19.69;46.17;98160.66;5003482;28;20469;-80
2022/07/14 00:11:31;;;;;;;3.63;2.60;;;20.40;47.30;;;19.73;46.09;98166.44;5005558;28;20448;-77
2022/07/14 00:13:58;;;;;;;3.47;2.90;;;20.40;47.40;;;19.86;46.19;98171.34;4995444;28;20556;-73
2022/07/14 00:16:27;;;;;;;2.93;2.73;;;20.40;47.50;;;19.88;46.61;98176.56;5000450;28;20479;-74
2022/07/14 00:18:54;;;;;;;3.30;3.00;;;20.50;47.80;;;19.78;47.19;98180.94;5004703;28;20469;-81
2022/07/14 00:21:21;;;;;;;4.67;2.30;;;20.50;48.10;;;19.78;47.14;98164.50;5020192;28;20505;-76
2022/07/14 00:23:50;;;;;;;2.87;2.67;;;20.40;48.20;;;19.99;46.99;98163.72;5002080;28;20470;-76
2022/07/14 00:26:17;;;;;;;3.60;3.30;;;20.50;48.30;;;19.95;47.05;98157.97;5002182;28;20477;-81
2022/07/14 00:28:45;;;;;;;3.40;3.10;;;20.60;48.40;;;19.93;47.22;98154.66;5003262;28;21017;-74
2022/07/14 00:31:12;;;;;;;4.50;3.07;;;20.60;48.40;;;19.91;47.33;98173.28;5000693;28;20471;-72
2022/07/14 00:33:41;;;;;;;3.83;2.53;;;20.60;48.60;;;19.64;47.68;98114.06;5004049;28;21164;-72
2022/07/14 00:36:10;;;;;;;4.63;2.87;;;20.60;48.80;;;19.95;47.84;98158.78;5002232;28;20458;-75
2022/07/14 00:38:37;;;;;;;3.80;2.60;;;20.60;49.00;;;19.90;48.11;98166.16;5001372;28;20470;-76
2022/07/14 00:41:06;;;;;;;3.07;2.53;;;20.60;49.20;;;19.90;48.68;98166.16;5015691;28;20458;-74
2022/07/14 00:43:33;;;;;;;3.40;2.93;;;20.60;49.50;;;19.79;48.49;98154.34;5006864;28;20464;-72
2022/07/14 00:46:01;;;;;;;4.37;2.40;;;20.50;49.40;;;19.49;48.63;98118.44;5002325;28;20901;-77
2022/07/14 00:48:28;;;;;;;2.47;2.27;;;20.50;49.70;;;19.73;49.12;98156.28;4999244;28;20509;-73
2022/07/14 00:50:56;;;;;;;3.23;2.80;;;20.40;49.90;;;19.57;49.40;98157.34;5021051;28;20465;-77
2022/07/14 00:53:23;;;;;;;3.10;2.90;;;20.30;49.90;;;19.62;49.26;98149.97;5013665;28;20470;-77
2022/07/14 00:55:51;;;;;;;2.90;2.70;;;20.30;50.10;;;19.51;50.00;98145.53;5013243;28;20446;-78
2022/07/14 00:58:19;;;;;;;2.43;2.33;;;20.30;50.30;;;19.33;50.35;98146.88;5011751;28;20464;-83
2022/07/14 01:00:47;;;;;;;3.50;3.10;;;20.10;50.50;;;19.26;50.62;98152.63;5016489;28;20462;-74
2022/07/14 01:03:15;;;;;;;2.73;2.50;;;20.00;50.70;;;19.27;50.73;98159.75;5008499;28;20460;-73
2022/07/14 01:05:42;;;;;;;4.87;2.60;;;20.00;50.90;;;19.31;50.99;98155.38;5010468;28;20463;-77
2022/07/14 01:08:10;;;;;;;3.43;2.73;;;20.00;51.20;;;19.39;50.57;98148.53;5011355;28;20528;-80
2022/07/14 01:10:37;;;;;;;4.47;3.10;;;20.10;51.20;;;19.60;50.04;98162.28;5001952;28;20505;-75
2022/07/14 01:13:07;;;;;;;3.23;2.93;;;20.20;51.00;;;19.72;49.63;98160.09;5005743;28;20482;-82
2022/07/14 01:15:36;;;;;;;3.13;2.83;;;20.30;50.80;;;19.63;50.21;98161.72;5010875;28;20949;-75
2022/07/14 01:18:04;;;;;;;3.27;2.97;;;20.30;51.10;;;19.69;49.85;98149.69;5013588;28;20876;-82
2022/07/14 01:20:31;;;;;;;3.30;2.63;;;20.40;51.00;;;19.95;48.69;98152.50;5010804;28;20457;-72
2022/07/14 01:23:01;;;;;;;3.20;2.50;;;20.60;50.60;;;20.22;47.73;98149.47;5003213;28;20549;-78
2022/07/14 01:25:28;;;;;;;2.87;2.57;;;20.80;50.10;;;20.18;48.24;98150.28;4998980;28;21237;-72
2022/07/14 01:27:56;;;;;;;3.50;3.00;;;20.80;50.00;;;20.23;48.54;98153.00;5001647;28;20462;-80
2022/07/14 01:30:23;;;;;;;3.77;3.13;;;20.90;50.50;;;20.24;48.17;98139.03;5006538;28;20468;-73
2022/07/14 01:32:51;;;;;;;3.40;3.10;;;20.90;50.20;;;20.24;47.92;98139.03;5004561;28;20458;-78
2022/07/14 01:35:18;;;;;;;6.10;3.20;;;21.00;50.10;;;20.23;49.10;98145.63;5004874;28;20571;-72
2022/07/14 01:37:48;;;;;;;4.50;3.17;;;20.90;50.60;;;20.12;49.60;98137.69;5004847;28;20833;-74
2022/07/14 01:40:17;;;;;;;4.20;2.50;;;20.80;51.00;;;20.00;49.69;98135.19;5000003;28;20460;-76
2022/07/14 01:42:44;;;;;;;8.20;3.10;;;20.70;51.00;;;20.00;48.34;98132.47;5018710;28;20474;-74
2022/07/14 01:45:13;;;;;;;4.90;2.50;;;20.70;50.30;;;20.03;48.01;98138.22;5000513;28;20570;-75
2022/07/14 01:47:41;;;;;;;4.03;2.50;;;20.70;49.90;;;19.98;47.99;98134.66;5002373;28;20852;-74
2022/07/14 01:50:09;;;;;;;3.33;2.93;;;20.70;50.00;;;19.96;48.38;98133.00;5001084;28;20526;-75
2022/07/14 01:52:36;;;;;;;3.20;2.67;;;20.60;50.10;;;19.64;48.48;98097.63;5001685;28;20862;-75
2022/07/14 01:55:06;;;;;;;2.87;2.67;;;20.60;50.10;;;19.93;48.82;98113.53;5010869;28;20542;-76
2022/07/14 01:57:35;;;;;;;3.07;2.37;;;20.60;50.20;;;19.89;48.23;98120.66;5001030;28;20456;-76
2022/07/14 02:00:02;;;;;;;5.30;2.80;;;20.60;50.10;;;19.84;48.61;98121.47;5002943;28;20504;-75
2022/07/14 02:02:29;;;;;;;3.67;2.87;;;20.60;50.20;;;19.72;48.93;98110.78;5006468;28;20458;-73
2022/07/14 02:04:57;;;;;;;2.60;2.40;;;20.50;50.20;;;19.71;48.95;98122.84;5000253;28;20498;-73
2022/07/14 02:07:24;;;;;;;2.83;2.63;;;20.50;50.40;;;19.57;49.81;98114.34;5013938;28;20629;-74
2022/07/14 02:12:37;;;;;;;2.87;2.60;;;20.30;50.60;;;19.54;49.50;98104.75;5001568;28;20588;-75
2022/07/14 02:15:07;;;;;;;3.10;2.60;;;20.30;50.70;;;19.47;50.13;98126.09;4999876;28;20468;-76
2022/07/14 02:17:34;;;;;;;5.80;3.10;;;20.20;50.90;;;19.43;50.16;98129.66;5001904;28;21046;-74
2022/07/14 02:20:01;;;;;;;3.10;2.83;;;20.20;51.10;;;19.33;50.57;98116.75;4999257;28;20461;-80
2022/07/14 02:22:28;;;;;;;5.03;3.03;;;20.10;51.20;;;19.27;50.77;98115.09;5019230;28;20480;-73
2022/07/14 02:24:55;;;;;;;3.63;2.90;;;20.10;51.40;;;19.15;50.87;98118.88;5017006;28;21220;-72
2022/07/14 02:27:23;;;;;;;2.77;2.57;;;20.00;51.40;;;19.14;51.01;98130.94;4994946;28;20468;-75
2022/07/14 02:29:52;;;;;;;2.83;2.30;;;19.90;51.60;;;19.27;50.64;98131.53;5000857;28;20464;-74
2022/07/14 02:32:19;;;;;;;5.53;3.03;;;19.90;51.50;;;19.15;50.50;98138.06;5001598;28;20491;-74
2022/07/14 02:34:47;;;;;;;3.30;2.90;;;19.80;51.20;;;19.04;51.60;98139.13;5000217;28;20447;-75
2022/07/14 02:37:15;;;;;;;3.80;3.30;;;19.80;51.80;;;19.10;51.48;98141.59;4997057;28;20461;-75
2022/07/14 02:39:42;;;;;;;3.47;3.17;;;19.80;52.00;;;19.03;50.76;98137.47;5013213;28;20542;-73
2022/07/14 02:42:09;;;;;;;5.23;3.53;;;19.80;51.30;;;19.00;50.55;98138.84;5016029;28;20452;-79
2022/07/14 02:44:36;;;;;;;4.07;3.77;;;19.70;51.30;;;18.91;50.61;98130.28;4998097;28;20466;-74
2022/07/14 02:47:05;;;;;;;6.93;3.37;;;19.70;51.10;;;18.91;50.38;98135.75;5015055;28;20584;-78
2022/07/14 02:49:33;;;;;;;4.63;3.57;;;19.70;51.10;;;18.86;50.63;98132.97;4999827;28;20450;-74
2022/07/14 02:52:00;;;;;;;5.87;3.10;;;19.60;51.10;;;18.91;50.92;98137.66;5008068;28;20449;-77
2022/07/14 02:54:27;;;;;;;4.40;4.00;;;19.60;51.50;;;18.81;51.10;98143.91;5003254;28;20460;-74
2022/07/14 02:56:54;;;;;;;7.20;4.00;;;19.60;51.50;;;18.77;50.77;98140.88;5004323;28;20498;-74
2022/07/14 02:59:22;;;;;;;5.03;3.30;;;19.50;51.40;;;18.58;51.57;98139.69;4999958;28;20500;-77
2022/07/14 03:01:49;;;;;;;3.40;3.17;;;19.40;51.50;;;18.44;51.74;98131.16;5006522;28;20447;-74
2022/07/14 03:04:18;;;;;;;6.83;4.00;;;19.30;51.70;;;18.41;51.95;98138.78;5005612;28;20455;-75
2022/07/14 03:06:46;;;;;;;3.90;3.60;;;19.20;51.80;;;18.40;51.91;98145.34;5005099;28;20598;-71
2022/07/14 03:09:13;;;;;;;3.17;2.87;;;19.10;51.90;;;18.40;52.23;98136.31;4997908;28;20553;-73
2022/07/14 03:11:40;;;;;;;3.60;3.30;;;19.10;52.10;;;18.32;52.94;98139.53;4996466;28;20479;-78
2022/07/14 03:14:07;;;;;;;3.97;3.40;;;19.10;52.70;;;18.27;53.09;98137.59;4999806;28;20533;-75
2022/07/14 03:16:34;;;;;;;4.40;3.33;;;19.00;52.70;;;18.12;53.34;98136.41;5006053;28;20962;-76
2022/07/14 03:19:02;;;;;;;3.50;3.17;;;18.90;52.70;;;17.96;54.16;98134.59;5002842;28;20471;-73
2022/07/14 03:21:30;;;;;;;4.80;3.23;;;18.80;53.10;;;17.89;54.62;98136.72;5000341;28;20557;-76
2022/07/14 03:23:58;;;;;;;3.77;3.47;;;18.70;53.30;;;17.88;54.29;98133.16;4991652;28;20486;-78
2022/07/14 03:26:28;;;;;;;3.73;3.43;;;18.70;53.40;;;17.88;54.44;98143.28;5000553;28;20972;-76
2022/07/14 03:28:55;;;;;;;5.50;3.00;;;18.70;53.50;;;17.82;54.69;98148.72;4996498;28;20490;-78
2022/07/14 03:31:22;;;;;;;4.07;3.67;;;18.60;53.60;;;17.98;54.22;98140.66;5002107;28;20459;-84
2022/07/14 03:33:50;;;;;;;5.20;4.03;;;18.70;53.80;;;17.84;55.03;98143.81;5000102;28;20463;-78
2022/07/14 03:36:17;;;;;;;4.20;3.53;;;18.60;53.90;;;17.90;55.07;98143.84;4996143;28;20529;-77
2022/07/14 03:38:46;;;;;;;4.50;3.63;;;18.60;54.10;;;17.92;54.80;98142.50;5004564;28;20451;-74
2022/07/14 03:41:13;;;;;;;5.80;4.40;;;18.70;54.00;;;17.98;54.05;98129.72;5004911;28;22242;-80
2022/07/14 03:43:41;;;;;;;4.40;4.00;;;18.70;53.80;;;17.96;54.30;98137.31;5026151;28;20455;-75
2022/07/14 03:46:09;;;;;;;3.97;3.67;;;18.70;53.80;;;17.94;54.64;98136.75;5015392;28;20478;-82
2022/07/14 03:48:36;;;;;;;4.53;3.50;;;18.70;53.90;;;18.16;53.97;98135.88;5017588;28;20518;-79
2022/07/14 03:51:04;;;;;;;3.77;3.43;;;18.80;54.20;;;17.97;53.92;98133.53;5006596;28;20459;-74
2022/07/14 03:53:32;;;;;;;5.60;4.10;;;18.70;53.50;;;18.04;54.04;98144.25;5000890;28;20455;-73
2022/07/14 03:56:01;;;;;;;4.77;3.67;;;18.70;53.70;;;17.91;54.61;98140.03;5016401;28;20547;-72
2022/07/14 03:58:28;;;;;;;4.50;3.53;;;18.70;54.00;;;17.86;55.23;98137.25;5003094;28;20464;-72
2022/07/14 04:00:56;;;;;;;7.33;3.70;;;18.60;54.20;;;17.80;55.42;98129.00;5008902;28;20470;-72
2022/07/14 04:03:23;;;;;;;4.63;3.70;;;18.60;54.60;;;17.77;55.45;98140.44;5009476;28;20479;-78
2022/07/14 04:05:50;;;;;;;4.80;3.47;;;18.60;54.50;;;17.76;55.95;98138.00;5002432;28;20452;-79
2022/07/14 04:08:17;;;;;;;5.80;4.30;;;18.60;54.90;;;17.90;55.43;98138.38;4998917;28;20494;-74
2022/07/14 04:10:45;;;;;;;5.13;3.93;;;18.60;54.80;;;17.92;55.58;98136.19;4996540;28;20467;-72
2022/07/14 04:13:15;;;;;;;6.90;4.07;;;18.70;54.90;;;17.91;55.57;98140.03;5003835;28;20452;-74
2022/07/14 04:15:43;;;;;;;5.80;4.63;;;18.70;54.90;;;17.99;55.67;98132.16;5003667;28;20455;-75
2022/07/14 04:18:10;;;;;;;3.77;3.10;;;18.80;55.00;;;18.01;55.53;98140.13;5018181;28;20961;-77
2022/07/14 04:20:37;;;;;;;4.27;3.60;;;18.80;55.00;;;18.34;54.87;98140.94;5008526;28;20466;-78
2022/07/14 04:23:05;;;;;;;4.80;3.93;;;19.10;55.00;;;18.93;53.05;98135.47;5005219;28;21011;-81
2022/07/14 04:25:33;;;;;;;3.50;3.20;;;19.80;54.40;;;19.23;51.84;98145.75;4999317;28;20468;-74
2022/07/14 04:28:00;;;;;;;4.43;3.50;;;20.30;53.40;;;19.09;52.17;98139.16;4996336;28;20494;-75
2022/07/14 04:30:29;;;;;;;4.20;3.80;;;20.20;53.20;;;19.68;50.97;98142.56;4996482;28;20857;-76
2022/07/14 04:32:56;;;;;;;5.13;3.90;;;20.60;53.00;;;20.41;48.77;98117.91;5019602;28;20899;-75
2022/07/14 04:35:24;;;;;;;4.00;3.40;;;21.30;52.30;;;20.55;48.41;98121.72;5002944;28;20555;-81
2022/07/14 04:37:51;;;;;;;4.20;3.80;;;21.80;51.60;;;21.00;47.48;98131.97;5008441;28;20477;-76
2022/07/14 04:40:18;;;;;;;7.40;3.50;;;22.20;51.20;;;22.73;43.57;98136.78;4998575;28;20485;-72
2022/07/14 04:42:46;;;;;;;6.63;3.50;;;23.40;50.90;;;23.47;41.50;98127.31;5003670;28;20470;-70
2022/07/14 04:45:13;;;;;;;5.67;3.50;;;24.20;49.30;;;23.83;40.00;98106.63;4980428;28;20459;-74
2022/07/14 04:47:42;;;;;;;3.67;3.33;;;24.80;48.40;;;24.06;39.55;98118.69;4999888;28;20484;-72
2022/07/14 04:52:54;;;;;;;4.33;3.10;;;25.30;47.70;;;24.78;38.08;98146.94;5003785;28;20466;-74
2022/07/14 04:55:22;;;;;;;5.10;3.33;;;25.60;47.30;;;25.08;36.34;98061.78;4995810;28;20477;-74
2022/07/14 04:57:50;;;;;;;5.87;3.20;;;26.30;46.50;;;25.66;36.86;98142.34;5004197;28;20462;-72
2022/07/14 05:00:17;;;;;;;10.30;3.80;;;26.30;46.80;;;25.92;36.42;98155.59;5002410;28;20842;-73
2022/07/14 05:02:46;;;;;;;4.97;3.00;;;26.60;46.60;;;25.54;36.68;98155.91;5005424;28;20632;-75
2022/07/14 05:05:13;;;;;;;3.83;3.07;;;26.70;45.80;;;26.05;35.52;98155.84;5000859;28;20460;-75
2022/07/14 05:07:41;;;;;;;10.13;3.80;;;26.70;45.80;;;25.98;35.72;98154.31;4998821;28;20486;-82
2022/07/14 05:10:09;;;;;;;6.50;3.20;;;27.00;45.80;;;26.47;35.54;98147.31;4995648;28;20541;-75
2022/07/14 05:12:36;;;;;;;17.57;4.90;;;27.20;45.80;;;26.12;37.65;98136.81;5002566;28;20455;-76
2022/07/14 05:15:04;;;;;;;12.77;4.93;;;27.20;46.70;;;25.42;38.04;98135.13;5000752;28;20467;-75
2022/07/14 05:17:32;;;;;;;9.73;4.60;;;26.80;46.60;;;25.64;37.07;98143.81;5003438;28;20467;-78
2022/07/14 05:20:00;;;;;;;8.30;4.10;;;26.90;46.60;;;26.63;36.63;98150.50;4999917;28;20478;-81
2022/07/14 05:22:28;;;;;;;8.70;4.50;;;27.30;47.20;;;25.85;37.22;98152.41;4999155;28;20910;-81
2022/07/14 05:24:55;;;;;;;9.40;4.43;;;27.20;45.80;;;25.78;36.10;98139.06;4998899;28;20477;-84
2022/07/14 05:27:22;;;;;;;7.53;4.37;;;26.80;45.70;;;25.70;36.17;98148.88;5006900;28;20479;-74
2022/07/14 05:29:50;;;;;;;5.20;3.50;;;26.80;45.20;;;25.57;36.76;98144.25;4996513;28;20451;-73
2022/07/14 05:32:18;;;;;;;4.47;3.57;;;26.50;45.50;;;25.39;36.72;98155.09;5001779;28;20528;-73
2022/07/14 05:34:46;;;;;;;6.93;3.83;;;26.50;45.50;;;26.50;35.16;98144.75;4994937;28;20471;-76
2022/07/14 05:37:15;;;;;;;4.80;3.70;;;27.00;45.40;;;26.78;34.14;98147.31;4999695;28;20464;-75
2022/07/14 05:39:42;;;;;;;8.77;4.47;;;27.60;44.80;;;25.42;36.39;98148.13;5018979;28;20479;-73
2022/07/14 05:42:10;;;;;;;13.73;3.30;;;26.90;44.90;;;23.34;40.60;98154.47;5004100;28;20464;-75
2022/07/14 05:44:37;;;;;;;6.23;3.80;;;25.10;46.10;;;23.98;40.29;98153.28;5000838;28;20465;-75
2022/07/14 05:47:05;;;;;;;8.10;3.87;;;24.70;47.20;;;24.38;39.19;98141.06;5001020;28;20994;-83
2022/07/14 05:49:32;;;;;;;5.00;3.57;;;25.20;47.00;;;24.04;39.63;98134.72;5001098;28;20463;-81
2022/07/14 05:52:02;;;;;;;16.27;6.50;;;25.20;46.90;;;24.66;38.47;98141.09;5000797;28;21427;-79
2022/07/14 05:54:30;;;;;;;5.47;3.27;;;25.70;46.50;;;25.07;37.42;98137.53;4998521;28;20990;-82
2022/07/14 05:56:58;;;;;;;7.23;3.40;;;26.10;45.90;;;25.91;36.34;98137.34;5003184;28;21241;-86
2022/07/14 05:59:25;;;;;;;6.70;3.60;;;26.70;45.70;;;25.92;36.24;98135.38;5021567;28;20950;-74
2022/07/14 06:01:52;;;;;;;7.80;3.63;;;27.00;45.20;;;26.77;34.73;98126.28;5004799;28;20466;-79
2022/07/14 06:04:20;;;;;;;9.90;4.20;;;27.50;45.00;;;27.17;33.95;98130.16;5001730;28;20490;-81
2022/07/14 06:06:47;;;;;;;10.53;3.67;;;27.80;44.70;;;25.87;35.49;98130.81;5005667;28;20483;-76
2022/07/14 06:09:17;;;;;;;11.30;3.70;;;27.50;44.50;;;25.70;36.34;98137.81;4994588;28;20541;-75
2022/07/14 06:11:45;;;;;;;6.53;3.30;;;27.40;44.80;;;26.82;34.66;98130.84;4993448;28;20462;-76
2022/07/14 06:14:14;;;;;;;8.10;3.50;;;27.70;44.70;;;27.19;34.02;98122.34;4994507;28;20456;-76
2022/07/14 06:16:42;;;;;;;10.43;3.73;;;28.40;44.30;;;27.84;33.06;98130.91;4997786;28;20548;-75
2022/07/14 06:19:09;;;;;;;4.57;3.30;;;29.10;43.80;;;28.32;31.92;98111.59;4992693;28;20478;-76
2022/07/14 06:21:36;;;;;;;6.73;3.20;;;29.70;43.50;;;28.74;31.31;98111.75;4997039;28;20490;-76
2022/07/14 06:24:04;;;;;;;7.80;3.90;;;30.00;43.20;;;28.98;31.10;98121.47;4997718;28;20447;-76
2022/07/14 06:26:32;;;;;;;3.30;2.90;;;30.10;43.00;;;28.24;32.33;98122.38;5011999;28;20872;-76
2022/07/14 06:29:00;;;;;;;5.70;3.70;;;29.70;43.20;;;27.26;33.49;98122.69;4996817;28;20534;-76
2022/07/14 06:31:28;;;;;;;7.70;3.13;;;28.80;43.50;;;26.80;34.78;98109.03;5008382;28;20456;-77
2022/07/14 06:33:56;;;;;;;5.37;3.00;;;28.30;44.00;;;25.53;36.54;98121.09;5032056;28;20461;-76
2022/07/14 06:36:23;;;;;;;5.13;2.90;;;27.10;44.30;;;25.21;36.67;98103.53;5022186;28;20534;-76
2022/07/14 06:38:50;;;;;;;5.60;3.27;;;26.40;44.80;;;25.30;36.47;98077.59;5018914;28;21025;-76
2022/07/14 06:41:21;;;;;;;4.20;3.40;;;26.20;45.40;;;26.03;35.91;98118.22;5011594;28;20467;-77
2022/07/14 06:43:48;;;;;;;4.47;2.60;;;26.50;45.70;;;25.15;37.07;98111.94;5005057;28;20457;-75
2022/07/14 06:46:18;;;;;;;3.47;2.13;;;26.10;45.30;;;24.99;36.56;98116.16;4996264;28;20463;-75
2022/07/14 06:48:46;;;;;;;3.90;2.60;;;25.80;45.60;;;25.41;35.80;98102.25;4997744;28;20483;-74
2022/07/14 06:51:13;;;;;;;4.67;2.70;;;26.00;45.00;;;25.76;35.59;98118.34;4997445;28;20546;-74
2022/07/14 06:53:40;;;;;;;7.17;2.87;;;26.20;45.00;;;26.23;34.93;98109.72;4994398;28;20465;-75
2022/07/14 06:56:08;;;;;;;5.60;2.90;;;26.60;45.10;;;26.66;34.50;98109.13;4997017;28;21111;-75
2022/07/14 06:58:36;;;;;;;4.97;3.03;;;27.10;44.80;;;26.73;34.78;98114.19;5011010;28;20456;-76
2022/07/14 07:01:03;;;;;;;3.10;2.10;;;27.30;44.80;;;26.54;34.69;98093.09;5002054;28;20827;-76
2022/07/14 07:03:32;;;;;;;3.27;3.00;;;27.30;44.60;;;26.30;34.90;98102.59;5014778;28;20456;-76
2022/07/14 07:08:44;;;;;;;7.20;3.47;;;27.50;44.60;;;26.52;35.15;98102.88;5008691;28;20475;-77
2022/07/14 07:11:12;;;;;;;8.27;2.97;;;27.50;44.90;;;26.37;34.66;98057.03;5002580;28;20960;-78
2022/07/14 07:13:39;;;;;;;3.73;2.70;;;27.40;44.50;;;26.21;34.94;98095.38;4998532;28;20469;-78
2022/07/14 07:16:08;;;;;;;9.20;3.10;;;27.10;44.50;;;26.35;34.95;98096.13;4996452;28;20534;-80
2022/07/14 07:18:38;;;;;;;3.50;2.40;;;27.10;44.70;;;26.55;34.76;98091.97;4998023;28;20455;-81
2022/07/14 07:21:06;;;;;;;5.50;3.10;;;27.10;44.90;;;26.97;34.40;98099.16;5000881;28;20467;-83
2022/07/14 07:23:33;;;;;;;4.50;2.87;;;27.30;44.90;;;27.26;34.11;98051.41;4997929;28;20463;-83
2022/07/14 07:26:01;;;;;;;2.47;2.27;;;27.90;45.00;;;27.87;32.90;98091.38;4999623;28;20522;-82
2022/07/14 07:28:28;;;;;;;2.70;2.50;;;28.50;44.30;;;27.78;33.07;98094.19;5000130;28;20895;-78
2022/07/14 07:30:55;;;;;;;5.30;3.00;;;28.50;44.20;;;28.13;32.57;98098.84;5002418;28;20618;-81
2022/07/14 07:33:22;;;;;;;4.63;2.90;;;28.50;44.00;;;28.34;32.84;98098.16;5010502;28;20467;-83
2022/07/14 07:35:51;;;;;;;6.00;3.20;;;28.70;44.40;;;28.38;32.62;98099.13;5000515;28;20470;-83
2022/07/14 07:38:19;;;;;;;4.83;2.43;;;29.00;44.40;;;28.49;32.35;98094.03;5000889;28;20513;-82
2022/07/14 07:40:48;;;;;;;7.33;2.70;;;29.10;44.00;;;28.69;32.21;98087.75;4996488;28;20553;-82
2022/07/14 07:43:16;;;;;;;2.83;2.33;;;29.20;43.90;;;28.44;31.92;98097.81;5006654;28;20464;-80
2022/07/14 07:45:43;;;;;;;4.00;2.80;;;28.90;43.70;;;28.04;32.27;98089.72;5020000;28;20477;-77
2022/07/14 07:48:12;;;;;;;3.97;2.70;;;28.70;43.70;;;27.78;32.86;98087.81;5020510;28;20490;-80
2022/07/14 07:50:42;;;;;;;3.00;2.50;;;28.50;43.80;;;28.00;32.76;98089.56;5010917;28;20602;-76
2022/07/14 07:53:11;;;;;;;3.17;2.77;;;28.40;44.10;;;27.28;33.04;98089.91;5020498;28;20463;-77
2022/07/14 07:55:39;;;;;;;2.97;2.33;;;28.10;43.50;;;26.93;34.08;98081.53;5019590;28;20485;-79
2022/07/14 07:58:07;;;;;;;5.00;2.37;;;27.80;44.00;;;27.04;33.71;98074.53;5031944;28;20461;-76
2022/07/14 08:00:35;;;;;;;4.80;2.87;;;27.70;44.10;;;27.10;34.07;98069.66;5019294;28;20459;-76
2022/07/14 08:03:03;;;;;;;4.00;3.23;;;27.70;44.40;;;27.11;33.86;98027.75;5018833;28;20456;-82
2022/07/14 08:05:31;;;;;;;2.90;2.60;;;27.70;44.30;;;27.44;33.55;98056.94;5013559;28;20456;-78
2022/07/14 08:07:58;;;;;;;7.47;2.43;;;27.90;44.20;;;27.33;33.22;98053.69;5019574;28;20468;-81
2022/07/14 08:10:28;;;;;;;10.63;3.20;;;28.00;43.90;;;27.00;33.70;98054.97;5012656;28;20455;-79
2022/07/14 08:12:56;;;;;;;4.30;2.80;;;27.60;43.90;;;27.07;33.68;98029.56;5005777;28;20474;-77
2022/07/14 08:15:24;;;;;;;4.90;2.70;;;27.70;44.20;;;27.44;33.77;98046.66;5006415;28;20466;-79
2022/07/14 08:17:52;;;;;;;4.67;2.73;;;28.00;44.30;;;28.03;32.57;98043.69;5006230;28;22350;-78
2022/07/14 08:20:20;;;;;;;3.93;2.70;;;28.40;44.00;;;28.46;31.26;98028.84;5005222;28;20645;-78
2022/07/14 08:22:47;;;;;;;2.93;2.10;;;28.80;43.40;;;28.65;30.95;98024.81;5005306;28;20551;-78
2022/07/14 08:25:15;;;;;;;3.23;2.00;;;29.20;43.00;;;29.27;30.09;98023.28;5003160;28;20522;-78
2022/07/14 08:27:43;;;;;;;2.70;2.50;;;29.50;42.80;;;28.80;30.16;98021.50;5020897;28;20474;-78
2022/07/14 08:30:11;;;;;;;4.80;2.30;;;29.50;42.40;;;29.23;30.07;98021.50;5020323;28;20459;-78
2022/07/14 08:32:40;;;;;;;4.00;2.67;;;29.70;42.50;;;29.49;29.79;98012.13;5008183;28;20521;-78
2022/07/14 08:35:10;;;;;;;2.47;2.27;;;30.00;42.80;;;29.64;29.43;98017.06;4996795;28;20694;-78
2022/07/14 08:37:38;;;;;;;2.90;2.23;;;30.10;42.60;;;29.90;29.06;98007.63;5002761;28;20531;-77
2022/07/14 08:40:09;;;;;;;3.00;2.50;;;30.30;42.30;;;29.69;30.04;97999.34;5006524;28;20483;-80
2022/07/14 08:42:39;;;;;;;4.53;2.80;;;30.40;42.50;;;29.84;29.72;97995.09;5000820;28;21105;-78
2022/07/14 08:45:12;;;;;;;4.03;2.73;;;30.40;42.50;;;29.92;29.42;97999.75;5002731;28;20525;-77
2022/07/14 08:47:40;;;;;;;3.87;2.50;;;30.60;42.40;;;29.32;29.81;97963.03;5007423;28;20470;-77
2022/07/14 08:50:12;;;;;;;2.67;2.13;;;30.30;42.50;;;29.36;29.85;97989.00;5002092;28;20482;-79
2022/07/14 08:52:39;;;;;;;4.03;2.30;;;30.00;42.20;;;29.50;30.06;97991.53;5005155;28;20554;-78
2022/07/14 08:55:10;;;;;;;6.03;2.53;;;30.10;42.40;;;29.19;30.54;97987.16;5000484;28;20475;-78
2022/07/14 08:57:40;;;;;;;3.03;2.57;;;29.90;42.50;;;29.27;30.41;97983.50;5006316;28;20467;-77
2022/07/14 09:00:12;;;;;;;3.00;2.70;;;29.90;42.60;;;29.08;30.70;97972.88;5001665;28;20463;-78
2022/07/14 09:02:42;;;;;;;3.70;2.30;;;29.70;42.90;;;29.23;30.66;97963.91;5004380;28;20467;-77
2022/07/14 09:05:09;;;;;;;2.50;2.33;;;29.80;42.90;;;29.19;30.88;97953.78;4998709;28;20502;-78
2022/07/14 09:07:38;;;;;;;3.33;2.30;;;29.80;42.80;;;29.49;30.16;97967.63;5004580;28;20455;-79
2022/07/14 09:10:09;;;;;;;5.73;2.50;;;29.90;42.80;;;29.53;30.45;97963.81;5005031;28;20494;-79
2022/07/14 09:12:38;;;;;;;8.50;2.87;;;30.00;42.80;;;29.71;30.06;97962.81;5001280;28;20464;-79
2022/07/14 09:17:57;;;;;;;2.73;2.30;;;30.30;42.80;;;29.77;29.66;97958.66;5014792;28;20452;-79
2022/07/14 09:20:27;;;;;;;3.70;2.90;;;30.40;42.40;;;29.20;30.74;97956.25;4998942;28;20461;-80
2022/07/14 09:22:57;;;;;;;5.97;2.80;;;30.00;42.70;;;29.46;31.02;97951.63;5007712;28;20578;-80
2022/07/14 09:25:27;;;;;;;6.20;2.50;;;30.00;43.00;;;29.41;30.17;97949.81;5015754;28;20463;-78
2022/07/14 09:27:56;;;;;;;5.47;2.73;;;30.00;42.80;;;29.45;30.53;97942.47;5020098;28;20498;-79
2022/07/14 09:30:26;;;;;;;3.13;2.60;;;29.90;42.80;;;29.90;30.31;97935.25;5007092;28;20476;-86
2022/07/14 09:32:56;;;;;;;4.20;2.27;;;30.20;42.90;;;29.86;29.00;97931.53;5002775;28;20570;-87
2022/07/14 09:35:27;;;;;;;3.03;2.67;;;30.30;42.20;;;29.97;28.85;97929.09;5004183;28;20467;-89
2022/07/14 09:37:55;;;;;;;6.80;2.27;;;30.30;41.90;;;29.92;28.84;97927.34;5012680;28;21013;-87
2022/07/14 09:40:29;;;;;;;3.80;2.40;;;30.40;41.80;;;30.66;27.89;97925.75;5005876;28;20549;-88
2022/07/14 09:42:59;;;;;;;2.30;2.10;;;30.80;41.60;;;31.18;27.62;97920.47;5010676;28;20478;-87
2022/07/14 09:45:30;;;;;;;2.47;2.27;;;31.50;41.50;;;31.53;26.56;97903.13;5013758;28;20470;-84
2022/07/14 09:48:02;;;;;;;3.30;2.30;;;31.80;41.20;;;31.27;26.59;97873.72;5019656;28;21365;-81
2022/07/14 09:50:48;;;;;;;5.33;2.10;;;32.00;40.80;;;31.50;26.32;97892.66;5010690;28;20479;-80
2022/07/14 09:53:23;;;;;;;3.13;2.80;;;32.10;40.50;;;32.16;25.80;97890.34;5005778;28;20951;-82
2022/07/14 09:56:01;;;;;;;2.53;2.33;;;32.40;40.70;;;32.31;25.83;97885.91;5005023;28;20466;-82
2022/07/14 09:58:33;;;;;;;4.93;2.30;;;32.70;40.50;;;32.45;25.50;97884.59;4998146;28;20474;-76
2022/07/14 10:01:05;;;;;;;3.10;2.50;;;32.80;40.40;;;32.03;25.59;97886.03;4998193;28;20468;-78
2022/07/14 10:03:34;;;;;;;3.03;2.47;;;32.50;40.40;;;31.65;26.00;97883.50;5003800;28;20837;-78
2022/07/14 10:06:04;;;;;;;2.70;2.27;;;32.30;40.30;;;31.44;26.19;97878.16;4995177;28;20554;-79
2022/07/14 10:08:36;;;;;;;2.40;2.20;;;31.90;40.40;;;31.52;26.75;97874.38;4998059;28;20685;-79
2022/07/14 10:11:04;;;;;;;5.83;2.03;;;32.00;40.70;;;31.32;26.94;97865.09;5014947;28;20459;-82
2022/07/14 10:13:32;;;;;;;4.30;2.27;;;31.90;40.60;;;31.58;26.22;97863.75;5023991;28;20444;-84
2022/07/14 10:16:02;;;;;;;3.40;2.20;;;32.00;40.40;;;31.54;26.35;97874.03;5023655;28;21457;-82
2022/07/14 10:18:29;;;;;;;3.33;1.97;;;31.90;40.20;;;31.36;25.92;97876.34;5025184;28;20453;-77
2022/07/14 10:20:59;;;;;;;3.20;2.20;;;31.80;40.10;;;31.05;25.53;97856.38;4994833;28;20451;-77
2022/07/14 10:23:27;;;;;;;6.90;2.30;;;31.70;39.60;;;30.77;25.70;97829.31;5002639;28;20470;-77
2022/07/14 10:25:58;;;;;;;6.87;2.37;;;31.50;39.70;;;31.01;25.90;97844.28;4999595;28;20899;-78
2022/07/14 10:28:27;;;;;;;4.70;2.17;;;31.50;39.80;;;31.01;25.24;97866.59;4998199;28;20974;-78
2022/07/14 10:31:19;;;;;;;3.23;2.13;;;31.40;39.50;;;31.06;25.21;97866.38;5000745;28;20467;-80
2022/07/14 10:33:55;;;;;;;3.23;2.23;;;31.30;39.50;;;31.24;25.28;97852.13;5009910;28;20464;-77